sensor_id;sensor_type;location;lat;lon;timestamp;P1;durP1;ratioP1;P2;durP2;ratioP2
22851;SDS011;11592;45.460;9.240;2024-02-28T00:02:24;16.35;;;10.13;;
22851;SDS011;11592;45.460;9.240;2024-02-28T00:04:51;15.30;;;9.43;;
22851;SDS011;11592;45.460;9.240;2024-02-28T00:07:19;15.77;;;10.50;;
22851;SDS011;11592;45.460;9.240;2024-02-28T00:09:46;15.27;;;10.73;;
22851;SDS011;11592;45.460;9.240;2024-02-28T00:12:14;14.82;;;10.38;;
22851;SDS011;11592;45.460;9.240;2024-02-28T00:14:41;15.15;;;10.38;;
22851;SDS011;11592;45.460;9.240;2024-02-28T00:17:08;16.05;;;10.55;;
22851;SDS011;11592;45.460;9.240;2024-02-28T00:19:36;15.43;;;10.93;;
22851;SDS011;11592;45.460;9.240;2024-02-28T00:22:04;16.20;;;10.65;;
22851;SDS011;11592;45.460;9.240;2024-02-28T00:24:31;17.10;;;11.13;;
22851;SDS011;11592;45.460;9.240;2024-02-28T00:26:59;20.40;;;11.98;;
22851;SDS011;11592;45.460;9.240;2024-02-28T00:29:26;18.67;;;12.30;;
22851;SDS011;11592;45.460;9.240;2024-02-28T00:31:54;17.27;;;11.85;;
22851;SDS011;11592;45.460;9.240;2024-02-28T00:34:21;19.00;;;12.18;;
22851;SDS011;11592;45.460;9.240;2024-02-28T00:36:48;17.45;;;11.82;;
22851;SDS011;11592;45.460;9.240;2024-02-28T00:39:21;15.85;;;11.60;;
22851;SDS011;11592;45.460;9.240;2024-02-28T00:41:49;20.13;;;12.05;;
22851;SDS011;11592;45.460;9.240;2024-02-28T00:44:16;15.15;;;10.68;;
22851;SDS011;11592;45.460;9.240;2024-02-28T00:46:43;18.15;;;12.50;;
22851;SDS011;11592;45.460;9.240;2024-02-28T00:49:10;17.00;;;12.18;;
22851;SDS011;11592;45.460;9.240;2024-02-28T00:51:38;18.90;;;12.63;;
22851;SDS011;11592;45.460;9.240;2024-02-28T00:54:05;17.02;;;12.77;;
22851;SDS011;11592;45.460;9.240;2024-02-28T00:56:32;19.23;;;12.55;;
22851;SDS011;11592;45.460;9.240;2024-02-28T00:59:00;19.60;;;13.02;;
22851;SDS011;11592;45.460;9.240;2024-02-28T01:01:27;18.17;;;12.65;;
22851;SDS011;11592;45.460;9.240;2024-02-28T01:03:54;20.90;;;13.10;;
22851;SDS011;11592;45.460;9.240;2024-02-28T01:06:21;16.15;;;11.43;;
22851;SDS011;11592;45.460;9.240;2024-02-28T01:08:48;19.52;;;13.48;;
22851;SDS011;11592;45.460;9.240;2024-02-28T01:11:15;17.08;;;11.77;;
22851;SDS011;11592;45.460;9.240;2024-02-28T01:13:43;20.85;;;12.85;;
22851;SDS011;11592;45.460;9.240;2024-02-28T01:16:10;22.17;;;14.45;;
22851;SDS011;11592;45.460;9.240;2024-02-28T01:18:37;17.13;;;12.23;;
22851;SDS011;11592;45.460;9.240;2024-02-28T01:21:05;19.55;;;12.77;;
22851;SDS011;11592;45.460;9.240;2024-02-28T01:23:32;17.48;;;13.07;;
22851;SDS011;11592;45.460;9.240;2024-02-28T01:25:59;20.35;;;13.88;;
22851;SDS011;11592;45.460;9.240;2024-02-28T01:28:29;22.90;;;14.30;;
22851;SDS011;11592;45.460;9.240;2024-02-28T01:30:56;22.58;;;14.05;;
22851;SDS011;11592;45.460;9.240;2024-02-28T01:33:24;16.88;;;12.13;;
22851;SDS011;11592;45.460;9.240;2024-02-28T01:35:51;15.90;;;12.40;;
22851;SDS011;11592;45.460;9.240;2024-02-28T01:38:22;18.85;;;13.63;;
22851;SDS011;11592;45.460;9.240;2024-02-28T01:40:49;18.35;;;13.45;;
22851;SDS011;11592;45.460;9.240;2024-02-28T01:43:16;19.73;;;13.20;;
22851;SDS011;11592;45.460;9.240;2024-02-28T01:45:43;20.20;;;13.68;;
22851;SDS011;11592;45.460;9.240;2024-02-28T01:48:11;21.00;;;13.77;;
22851;SDS011;11592;45.460;9.240;2024-02-28T01:50:39;17.55;;;12.23;;
22851;SDS011;11592;45.460;9.240;2024-02-28T01:53:07;15.52;;;11.80;;
22851;SDS011;11592;45.460;9.240;2024-02-28T01:55:35;16.00;;;10.75;;
22851;SDS011;11592;45.460;9.240;2024-02-28T01:58:03;18.95;;;11.82;;
22851;SDS011;11592;45.460;9.240;2024-02-28T02:00:34;17.13;;;11.95;;
22851;SDS011;11592;45.460;9.240;2024-02-28T02:03:03;16.55;;;11.30;;
22851;SDS011;11592;45.460;9.240;2024-02-28T02:05:30;17.08;;;12.55;;
22851;SDS011;11592;45.460;9.240;2024-02-28T02:07:57;18.75;;;13.88;;
22851;SDS011;11592;45.460;9.240;2024-02-28T02:10:25;16.88;;;11.73;;
22851;SDS011;11592;45.460;9.240;2024-02-28T02:12:52;21.20;;;13.90;;
22851;SDS011;11592;45.460;9.240;2024-02-28T02:15:20;18.88;;;13.30;;
22851;SDS011;11592;45.460;9.240;2024-02-28T02:17:47;20.58;;;13.55;;
22851;SDS011;11592;45.460;9.240;2024-02-28T02:20:14;18.80;;;13.75;;
22851;SDS011;11592;45.460;9.240;2024-02-28T02:22:42;19.17;;;13.68;;
22851;SDS011;11592;45.460;9.240;2024-02-28T02:25:09;18.10;;;13.27;;
22851;SDS011;11592;45.460;9.240;2024-02-28T02:27:36;19.67;;;13.50;;
22851;SDS011;11592;45.460;9.240;2024-02-28T02:30:04;19.10;;;13.30;;
22851;SDS011;11592;45.460;9.240;2024-02-28T02:32:31;16.85;;;11.57;;
22851;SDS011;11592;45.460;9.240;2024-02-28T02:34:58;19.15;;;12.82;;
22851;SDS011;11592;45.460;9.240;2024-02-28T02:37:26;17.42;;;12.18;;
22851;SDS011;11592;45.460;9.240;2024-02-28T02:39:53;21.45;;;12.05;;
22851;SDS011;11592;45.460;9.240;2024-02-28T02:42:20;16.85;;;11.90;;
22851;SDS011;11592;45.460;9.240;2024-02-28T02:44:48;15.50;;;11.45;;
22851;SDS011;11592;45.460;9.240;2024-02-28T02:47:14;18.90;;;12.40;;
22851;SDS011;11592;45.460;9.240;2024-02-28T02:49:41;16.00;;;11.75;;
22851;SDS011;11592;45.460;9.240;2024-02-28T02:52:08;17.13;;;11.32;;
22851;SDS011;11592;45.460;9.240;2024-02-28T02:54:36;16.33;;;11.32;;
22851;SDS011;11592;45.460;9.240;2024-02-28T02:57:03;15.98;;;10.88;;
22851;SDS011;11592;45.460;9.240;2024-02-28T02:59:30;17.75;;;11.55;;
22851;SDS011;11592;45.460;9.240;2024-02-28T03:01:57;16.10;;;11.25;;
22851;SDS011;11592;45.460;9.240;2024-02-28T03:04:24;16.77;;;12.35;;
22851;SDS011;11592;45.460;9.240;2024-02-28T03:06:51;18.60;;;12.48;;
22851;SDS011;11592;45.460;9.240;2024-02-28T03:09:18;14.63;;;10.95;;
22851;SDS011;11592;45.460;9.240;2024-02-28T03:11:45;15.93;;;11.15;;
22851;SDS011;11592;45.460;9.240;2024-02-28T03:14:13;16.00;;;11.00;;
22851;SDS011;11592;45.460;9.240;2024-02-28T03:16:43;17.63;;;12.05;;
22851;SDS011;11592;45.460;9.240;2024-02-28T03:19:10;16.52;;;11.43;;
22851;SDS011;11592;45.460;9.240;2024-02-28T03:21:38;15.02;;;10.85;;
22851;SDS011;11592;45.460;9.240;2024-02-28T03:24:05;16.33;;;10.88;;
22851;SDS011;11592;45.460;9.240;2024-02-28T03:26:32;16.52;;;11.60;;
22851;SDS011;11592;45.460;9.240;2024-02-28T03:28:59;16.67;;;11.85;;
22851;SDS011;11592;45.460;9.240;2024-02-28T03:31:26;14.98;;;10.60;;
22851;SDS011;11592;45.460;9.240;2024-02-28T03:33:54;16.73;;;10.13;;
22851;SDS011;11592;45.460;9.240;2024-02-28T03:36:21;15.00;;;10.52;;
22851;SDS011;11592;45.460;9.240;2024-02-28T03:38:49;14.85;;;10.13;;
22851;SDS011;11592;45.460;9.240;2024-02-28T03:41:16;18.10;;;11.45;;
22851;SDS011;11592;45.460;9.240;2024-02-28T03:43:43;14.55;;;10.23;;
22851;SDS011;11592;45.460;9.240;2024-02-28T03:46:10;13.90;;;9.68;;
22851;SDS011;11592;45.460;9.240;2024-02-28T03:48:37;17.05;;;10.07;;
22851;SDS011;11592;45.460;9.240;2024-02-28T03:51:04;14.60;;;9.27;;
22851;SDS011;11592;45.460;9.240;2024-02-28T03:53:31;14.40;;;9.10;;
22851;SDS011;11592;45.460;9.240;2024-02-28T03:55:59;12.45;;;8.88;;
22851;SDS011;11592;45.460;9.240;2024-02-28T03:58:27;13.48;;;9.63;;
22851;SDS011;11592;45.460;9.240;2024-02-28T04:00:54;13.63;;;9.35;;
22851;SDS011;11592;45.460;9.240;2024-02-28T04:03:22;13.40;;;8.25;;
22851;SDS011;11592;45.460;9.240;2024-02-28T04:05:49;13.18;;;8.68;;
22851;SDS011;11592;45.460;9.240;2024-02-28T04:08:16;12.02;;;8.43;;
22851;SDS011;11592;45.460;9.240;2024-02-28T04:10:44;10.93;;;7.75;;
22851;SDS011;11592;45.460;9.240;2024-02-28T04:13:11;13.18;;;8.45;;
22851;SDS011;11592;45.460;9.240;2024-02-28T04:15:39;12.88;;;8.60;;
22851;SDS011;11592;45.460;9.240;2024-02-28T04:18:05;12.77;;;8.25;;
22851;SDS011;11592;45.460;9.240;2024-02-28T04:20:33;12.57;;;8.25;;
22851;SDS011;11592;45.460;9.240;2024-02-28T04:23:00;12.73;;;7.78;;
22851;SDS011;11592;45.460;9.240;2024-02-28T04:25:27;10.70;;;7.10;;
22851;SDS011;11592;45.460;9.240;2024-02-28T04:27:54;11.80;;;7.32;;
22851;SDS011;11592;45.460;9.240;2024-02-28T04:30:23;12.25;;;7.35;;
22851;SDS011;11592;45.460;9.240;2024-02-28T04:32:50;11.88;;;7.43;;
22851;SDS011;11592;45.460;9.240;2024-02-28T04:35:17;9.95;;;7.18;;
22851;SDS011;11592;45.460;9.240;2024-02-28T04:37:45;10.30;;;7.13;;
22851;SDS011;11592;45.460;9.240;2024-02-28T04:40:13;10.15;;;7.05;;
22851;SDS011;11592;45.460;9.240;2024-02-28T04:42:41;10.40;;;7.07;;
22851;SDS011;11592;45.460;9.240;2024-02-28T04:45:11;10.88;;;7.38;;
22851;SDS011;11592;45.460;9.240;2024-02-28T04:47:39;8.73;;;6.00;;
22851;SDS011;11592;45.460;9.240;2024-02-28T04:50:10;10.80;;;7.15;;
22851;SDS011;11592;45.460;9.240;2024-02-28T04:52:37;10.27;;;6.30;;
22851;SDS011;11592;45.460;9.240;2024-02-28T04:55:04;10.80;;;6.22;;
22851;SDS011;11592;45.460;9.240;2024-02-28T04:57:32;11.05;;;6.45;;
22851;SDS011;11592;45.460;9.240;2024-02-28T04:59:59;11.93;;;5.72;;
22851;SDS011;11592;45.460;9.240;2024-02-28T05:02:26;9.10;;;6.30;;
22851;SDS011;11592;45.460;9.240;2024-02-28T05:04:53;9.45;;;6.07;;
22851;SDS011;11592;45.460;9.240;2024-02-28T05:07:21;10.65;;;5.65;;
22851;SDS011;11592;45.460;9.240;2024-02-28T05:09:48;9.93;;;6.10;;
22851;SDS011;11592;45.460;9.240;2024-02-28T05:12:16;8.35;;;5.43;;
22851;SDS011;11592;45.460;9.240;2024-02-28T05:14:43;7.65;;;5.55;;
22851;SDS011;11592;45.460;9.240;2024-02-28T05:17:11;7.68;;;5.40;;
22851;SDS011;11592;45.460;9.240;2024-02-28T05:19:38;9.50;;;5.35;;
22851;SDS011;11592;45.460;9.240;2024-02-28T05:22:06;9.07;;;5.43;;
22851;SDS011;11592;45.460;9.240;2024-02-28T05:24:33;8.73;;;4.85;;
22851;SDS011;11592;45.460;9.240;2024-02-28T05:27:01;8.13;;;4.95;;
22851;SDS011;11592;45.460;9.240;2024-02-28T05:29:28;9.30;;;5.57;;
22851;SDS011;11592;45.460;9.240;2024-02-28T05:31:55;10.63;;;5.05;;
22851;SDS011;11592;45.460;9.240;2024-02-28T05:34:23;10.40;;;5.50;;
22851;SDS011;11592;45.460;9.240;2024-02-28T05:36:50;9.07;;;6.20;;
22851;SDS011;11592;45.460;9.240;2024-02-28T05:39:18;9.57;;;5.88;;
22851;SDS011;11592;45.460;9.240;2024-02-28T05:41:45;9.68;;;6.07;;
22851;SDS011;11592;45.460;9.240;2024-02-28T05:44:11;8.15;;;5.22;;
22851;SDS011;11592;45.460;9.240;2024-02-28T05:46:39;9.23;;;5.82;;
22851;SDS011;11592;45.460;9.240;2024-02-28T05:49:06;11.45;;;6.90;;
22851;SDS011;11592;45.460;9.240;2024-02-28T05:51:34;9.95;;;6.72;;
22851;SDS011;11592;45.460;9.240;2024-02-28T05:54:02;10.63;;;7.18;;
22851;SDS011;11592;45.460;9.240;2024-02-28T05:56:29;12.93;;;7.53;;
22851;SDS011;11592;45.460;9.240;2024-02-28T05:58:56;9.85;;;7.10;;
22851;SDS011;11592;45.460;9.240;2024-02-28T06:01:23;12.15;;;7.28;;
22851;SDS011;11592;45.460;9.240;2024-02-28T06:03:50;11.15;;;7.50;;
22851;SDS011;11592;45.460;9.240;2024-02-28T06:06:17;11.43;;;7.30;;
22851;SDS011;11592;45.460;9.240;2024-02-28T06:08:44;12.70;;;7.47;;
22851;SDS011;11592;45.460;9.240;2024-02-28T06:11:11;13.00;;;7.85;;
22851;SDS011;11592;45.460;9.240;2024-02-28T06:13:41;10.00;;;7.28;;
22851;SDS011;11592;45.460;9.240;2024-02-28T06:18:42;10.82;;;6.25;;
22851;SDS011;11592;45.460;9.240;2024-02-28T06:21:09;10.73;;;7.30;;
22851;SDS011;11592;45.460;9.240;2024-02-28T06:23:37;9.90;;;6.80;;
22851;SDS011;11592;45.460;9.240;2024-02-28T06:26:04;11.30;;;6.75;;
22851;SDS011;11592;45.460;9.240;2024-02-28T06:28:31;11.38;;;6.57;;
22851;SDS011;11592;45.460;9.240;2024-02-28T06:31:01;9.90;;;6.60;;
22851;SDS011;11592;45.460;9.240;2024-02-28T06:33:28;10.15;;;6.63;;
22851;SDS011;11592;45.460;9.240;2024-02-28T06:35:55;10.07;;;6.05;;
22851;SDS011;11592;45.460;9.240;2024-02-28T06:38:22;11.18;;;6.75;;
22851;SDS011;11592;45.460;9.240;2024-02-28T06:40:49;11.30;;;7.03;;
22851;SDS011;11592;45.460;9.240;2024-02-28T06:43:16;10.18;;;6.40;;
22851;SDS011;11592;45.460;9.240;2024-02-28T06:45:43;9.25;;;6.38;;
22851;SDS011;11592;45.460;9.240;2024-02-28T06:48:10;10.00;;;5.70;;
22851;SDS011;11592;45.460;9.240;2024-02-28T06:50:37;8.93;;;6.40;;
22851;SDS011;11592;45.460;9.240;2024-02-28T06:53:04;8.65;;;6.07;;
22851;SDS011;11592;45.460;9.240;2024-02-28T06:55:31;9.10;;;6.32;;
22851;SDS011;11592;45.460;9.240;2024-02-28T06:57:58;10.90;;;6.97;;
22851;SDS011;11592;45.460;9.240;2024-02-28T07:00:25;12.85;;;7.20;;
22851;SDS011;11592;45.460;9.240;2024-02-28T07:02:52;9.85;;;6.28;;
22851;SDS011;11592;45.460;9.240;2024-02-28T07:05:20;10.05;;;6.68;;
22851;SDS011;11592;45.460;9.240;2024-02-28T07:07:47;12.98;;;7.10;;
22851;SDS011;11592;45.460;9.240;2024-02-28T07:10:14;10.15;;;5.88;;
22851;SDS011;11592;45.460;9.240;2024-02-28T07:12:42;9.98;;;6.53;;
22851;SDS011;11592;45.460;9.240;2024-02-28T07:15:09;9.82;;;6.75;;
22851;SDS011;11592;45.460;9.240;2024-02-28T07:17:36;11.35;;;6.95;;
22851;SDS011;11592;45.460;9.240;2024-02-28T07:20:04;9.85;;;6.47;;
22851;SDS011;11592;45.460;9.240;2024-02-28T07:22:31;12.20;;;6.43;;
22851;SDS011;11592;45.460;9.240;2024-02-28T07:24:58;11.80;;;6.90;;
22851;SDS011;11592;45.460;9.240;2024-02-28T07:27:25;9.52;;;6.47;;
22851;SDS011;11592;45.460;9.240;2024-02-28T07:29:52;9.80;;;5.75;;
22851;SDS011;11592;45.460;9.240;2024-02-28T07:32:19;8.65;;;5.65;;
22851;SDS011;11592;45.460;9.240;2024-02-28T07:34:46;9.10;;;5.90;;
22851;SDS011;11592;45.460;9.240;2024-02-28T07:37:13;8.05;;;5.40;;
22851;SDS011;11592;45.460;9.240;2024-02-28T07:39:40;9.18;;;6.10;;
22851;SDS011;11592;45.460;9.240;2024-02-28T07:42:07;10.23;;;5.38;;
22851;SDS011;11592;45.460;9.240;2024-02-28T07:44:34;10.60;;;4.60;;
22851;SDS011;11592;45.460;9.240;2024-02-28T07:47:01;11.27;;;5.30;;
22851;SDS011;11592;45.460;9.240;2024-02-28T07:49:28;8.95;;;5.53;;
22851;SDS011;11592;45.460;9.240;2024-02-28T07:51:56;7.25;;;4.75;;
22851;SDS011;11592;45.460;9.240;2024-02-28T07:54:23;8.85;;;5.13;;
22851;SDS011;11592;45.460;9.240;2024-02-28T07:56:50;10.73;;;5.47;;
22851;SDS011;11592;45.460;9.240;2024-02-28T07:59:18;10.70;;;5.57;;
22851;SDS011;11592;45.460;9.240;2024-02-28T08:01:45;9.85;;;5.47;;
22851;SDS011;11592;45.460;9.240;2024-02-28T08:04:12;7.90;;;5.45;;
22851;SDS011;11592;45.460;9.240;2024-02-28T08:06:40;7.00;;;5.13;;
22851;SDS011;11592;45.460;9.240;2024-02-28T08:09:07;12.15;;;5.65;;
22851;SDS011;11592;45.460;9.240;2024-02-28T08:11:38;9.63;;;6.40;;
22851;SDS011;11592;45.460;9.240;2024-02-28T08:14:05;10.55;;;6.30;;
22851;SDS011;11592;45.460;9.240;2024-02-28T08:16:32;9.25;;;6.05;;
22851;SDS011;11592;45.460;9.240;2024-02-28T08:18:59;10.30;;;6.03;;
22851;SDS011;11592;45.460;9.240;2024-02-28T08:21:27;9.65;;;5.80;;
22851;SDS011;11592;45.460;9.240;2024-02-28T08:23:55;12.73;;;7.00;;
22851;SDS011;11592;45.460;9.240;2024-02-28T08:26:24;10.77;;;6.88;;
22851;SDS011;11592;45.460;9.240;2024-02-28T08:28:51;11.68;;;7.07;;
22851;SDS011;11592;45.460;9.240;2024-02-28T08:31:18;12.35;;;6.85;;
22851;SDS011;11592;45.460;9.240;2024-02-28T08:33:45;11.27;;;7.03;;
22851;SDS011;11592;45.460;9.240;2024-02-28T08:36:13;9.80;;;6.55;;
22851;SDS011;11592;45.460;9.240;2024-02-28T08:38:40;10.82;;;6.32;;
22851;SDS011;11592;45.460;9.240;2024-02-28T08:41:07;10.15;;;6.45;;
22851;SDS011;11592;45.460;9.240;2024-02-28T08:43:38;9.50;;;6.43;;
22851;SDS011;11592;45.460;9.240;2024-02-28T08:46:06;12.05;;;6.50;;
22851;SDS011;11592;45.460;9.240;2024-02-28T08:48:33;10.85;;;6.57;;
22851;SDS011;11592;45.460;9.240;2024-02-28T08:51:00;10.77;;;6.47;;
22851;SDS011;11592;45.460;9.240;2024-02-28T08:53:27;12.65;;;6.63;;
22851;SDS011;11592;45.460;9.240;2024-02-28T08:55:54;8.48;;;6.38;;
22851;SDS011;11592;45.460;9.240;2024-02-28T08:58:21;11.75;;;7.15;;
22851;SDS011;11592;45.460;9.240;2024-02-28T09:00:48;11.73;;;6.40;;
22851;SDS011;11592;45.460;9.240;2024-02-28T09:03:16;10.95;;;7.53;;
22851;SDS011;11592;45.460;9.240;2024-02-28T09:05:43;11.45;;;6.90;;
22851;SDS011;11592;45.460;9.240;2024-02-28T09:08:10;11.35;;;8.00;;
22851;SDS011;11592;45.460;9.240;2024-02-28T09:10:40;11.63;;;7.63;;
22851;SDS011;11592;45.460;9.240;2024-02-28T09:13:07;14.63;;;8.55;;
22851;SDS011;11592;45.460;9.240;2024-02-28T09:15:36;11.52;;;7.35;;
22851;SDS011;11592;45.460;9.240;2024-02-28T09:18:03;13.15;;;8.15;;
22851;SDS011;11592;45.460;9.240;2024-02-28T09:20:31;10.27;;;7.78;;
22851;SDS011;11592;45.460;9.240;2024-02-28T09:22:58;12.90;;;9.13;;
22851;SDS011;11592;45.460;9.240;2024-02-28T09:25:25;12.38;;;7.90;;
22851;SDS011;11592;45.460;9.240;2024-02-28T09:27:54;11.45;;;7.85;;
22851;SDS011;11592;45.460;9.240;2024-02-28T09:30:21;12.55;;;8.82;;
22851;SDS011;11592;45.460;9.240;2024-02-28T09:32:50;18.48;;;10.10;;
22851;SDS011;11592;45.460;9.240;2024-02-28T09:35:17;11.93;;;8.00;;
22851;SDS011;11592;45.460;9.240;2024-02-28T09:37:44;14.85;;;8.80;;
22851;SDS011;11592;45.460;9.240;2024-02-28T09:40:12;14.90;;;9.20;;
22851;SDS011;11592;45.460;9.240;2024-02-28T09:42:39;18.52;;;10.23;;
22851;SDS011;11592;45.460;9.240;2024-02-28T09:45:08;15.55;;;9.55;;
22851;SDS011;11592;45.460;9.240;2024-02-28T09:47:38;15.13;;;10.40;;
22851;SDS011;11592;45.460;9.240;2024-02-28T09:50:06;14.10;;;10.10;;
22851;SDS011;11592;45.460;9.240;2024-02-28T09:52:34;16.02;;;10.52;;
22851;SDS011;11592;45.460;9.240;2024-02-28T09:55:01;16.63;;;10.25;;
22851;SDS011;11592;45.460;9.240;2024-02-28T09:57:29;14.57;;;10.75;;
22851;SDS011;11592;45.460;9.240;2024-02-28T09:59:57;14.93;;;10.75;;
22851;SDS011;11592;45.460;9.240;2024-02-28T10:02:25;15.95;;;10.00;;
22851;SDS011;11592;45.460;9.240;2024-02-28T10:04:54;13.95;;;10.07;;
22851;SDS011;11592;45.460;9.240;2024-02-28T10:07:23;18.63;;;10.75;;
22851;SDS011;11592;45.460;9.240;2024-02-28T10:09:51;12.02;;;9.68;;
22851;SDS011;11592;45.460;9.240;2024-02-28T10:12:19;12.95;;;8.65;;
22851;SDS011;11592;45.460;9.240;2024-02-28T10:14:49;16.55;;;9.10;;
22851;SDS011;11592;45.460;9.240;2024-02-28T10:17:17;15.00;;;8.98;;
22851;SDS011;11592;45.460;9.240;2024-02-28T10:19:44;14.63;;;8.23;;
22851;SDS011;11592;45.460;9.240;2024-02-28T10:22:11;10.05;;;7.80;;
22851;SDS011;11592;45.460;9.240;2024-02-28T10:24:39;13.45;;;8.90;;
22851;SDS011;11592;45.460;9.240;2024-02-28T10:27:06;12.68;;;8.52;;
22851;SDS011;11592;45.460;9.240;2024-02-28T10:29:33;16.23;;;8.52;;
22851;SDS011;11592;45.460;9.240;2024-02-28T10:32:00;11.77;;;8.27;;
22851;SDS011;11592;45.460;9.240;2024-02-28T10:34:29;12.20;;;8.02;;
22851;SDS011;11592;45.460;9.240;2024-02-28T10:36:57;13.50;;;7.60;;
22851;SDS011;11592;45.460;9.240;2024-02-28T10:39:24;11.25;;;6.95;;
22851;SDS011;11592;45.460;9.240;2024-02-28T10:41:53;10.73;;;6.47;;
22851;SDS011;11592;45.460;9.240;2024-02-28T10:44:20;11.75;;;7.90;;
22851;SDS011;11592;45.460;9.240;2024-02-28T10:46:49;14.50;;;8.38;;
22851;SDS011;11592;45.460;9.240;2024-02-28T10:49:17;13.85;;;8.38;;
22851;SDS011;11592;45.460;9.240;2024-02-28T10:51:45;11.10;;;7.25;;
22851;SDS011;11592;45.460;9.240;2024-02-28T10:54:14;9.13;;;6.60;;
22851;SDS011;11592;45.460;9.240;2024-02-28T10:56:42;11.98;;;6.90;;
22851;SDS011;11592;45.460;9.240;2024-02-28T10:59:12;13.70;;;8.45;;
22851;SDS011;11592;45.460;9.240;2024-02-28T11:01:40;11.88;;;7.72;;
22851;SDS011;11592;45.460;9.240;2024-02-28T11:04:09;13.63;;;8.50;;
22851;SDS011;11592;45.460;9.240;2024-02-28T11:06:47;11.75;;;7.57;;
22851;SDS011;11592;45.460;9.240;2024-02-28T11:09:19;15.32;;;8.95;;
22851;SDS011;11592;45.460;9.240;2024-02-28T11:11:50;13.20;;;8.43;;
22851;SDS011;11592;45.460;9.240;2024-02-28T11:14:18;12.45;;;7.88;;
22851;SDS011;11592;45.460;9.240;2024-02-28T11:17:00;11.05;;;7.30;;
22851;SDS011;11592;45.460;9.240;2024-02-28T11:19:32;14.85;;;8.10;;
22851;SDS011;11592;45.460;9.240;2024-02-28T11:24:31;19.83;;;9.52;;
22851;SDS011;11592;45.460;9.240;2024-02-28T11:27:00;17.48;;;9.90;;
22851;SDS011;11592;45.460;9.240;2024-02-28T11:29:29;13.40;;;9.68;;
22851;SDS011;11592;45.460;9.240;2024-02-28T11:31:56;14.48;;;9.68;;
22851;SDS011;11592;45.460;9.240;2024-02-28T11:34:24;16.48;;;9.07;;
22851;SDS011;11592;45.460;9.240;2024-02-28T11:36:52;14.40;;;9.45;;
22851;SDS011;11592;45.460;9.240;2024-02-28T11:39:22;19.02;;;9.63;;
22851;SDS011;11592;45.460;9.240;2024-02-28T11:41:52;12.90;;;8.80;;
22851;SDS011;11592;45.460;9.240;2024-02-28T11:44:19;14.40;;;9.23;;
22851;SDS011;11592;45.460;9.240;2024-02-28T11:46:49;16.63;;;8.63;;
22851;SDS011;11592;45.460;9.240;2024-02-28T11:49:17;11.35;;;8.00;;
22851;SDS011;11592;45.460;9.240;2024-02-28T11:51:45;13.23;;;6.78;;
22851;SDS011;11592;45.460;9.240;2024-02-28T11:54:13;8.43;;;6.10;;
22851;SDS011;11592;45.460;9.240;2024-02-28T11:56:40;12.30;;;7.50;;
22851;SDS011;11592;45.460;9.240;2024-02-28T11:59:08;12.27;;;6.90;;
22851;SDS011;11592;45.460;9.240;2024-02-28T12:01:36;8.05;;;4.00;;
22851;SDS011;11592;45.460;9.240;2024-02-28T12:04:04;8.05;;;3.58;;
22851;SDS011;11592;45.460;9.240;2024-02-28T12:06:36;5.97;;;2.85;;
22851;SDS011;11592;45.460;9.240;2024-02-28T12:09:05;6.55;;;3.08;;
22851;SDS011;11592;45.460;9.240;2024-02-28T12:11:35;6.78;;;4.28;;
22851;SDS011;11592;45.460;9.240;2024-02-28T12:14:03;7.43;;;3.70;;
22851;SDS011;11592;45.460;9.240;2024-02-28T12:16:33;7.88;;;3.88;;
22851;SDS011;11592;45.460;9.240;2024-02-28T12:19:00;8.70;;;4.70;;
22851;SDS011;11592;45.460;9.240;2024-02-28T12:21:30;9.77;;;4.68;;
22851;SDS011;11592;45.460;9.240;2024-02-28T12:23:57;8.50;;;4.25;;
22851;SDS011;11592;45.460;9.240;2024-02-28T12:26:26;8.50;;;4.65;;
22851;SDS011;11592;45.460;9.240;2024-02-28T12:28:54;12.18;;;4.40;;
22851;SDS011;11592;45.460;9.240;2024-02-28T12:31:21;8.65;;;3.83;;
22851;SDS011;11592;45.460;9.240;2024-02-28T12:33:48;5.45;;;2.67;;
22851;SDS011;11592;45.460;9.240;2024-02-28T12:36:15;9.15;;;3.83;;
22851;SDS011;11592;45.460;9.240;2024-02-28T12:38:43;8.38;;;4.82;;
22851;SDS011;11592;45.460;9.240;2024-02-28T12:41:10;9.40;;;5.30;;
22851;SDS011;11592;45.460;9.240;2024-02-28T12:43:38;9.18;;;5.18;;
22851;SDS011;11592;45.460;9.240;2024-02-28T12:46:05;6.53;;;3.90;;
22851;SDS011;11592;45.460;9.240;2024-02-28T12:48:37;5.78;;;3.50;;
22851;SDS011;11592;45.460;9.240;2024-02-28T12:51:04;7.22;;;3.50;;
22851;SDS011;11592;45.460;9.240;2024-02-28T12:53:32;7.18;;;3.60;;
22851;SDS011;11592;45.460;9.240;2024-02-28T12:55:59;7.55;;;3.72;;
22851;SDS011;11592;45.460;9.240;2024-02-28T12:58:26;8.88;;;3.95;;
22851;SDS011;11592;45.460;9.240;2024-02-28T13:00:54;6.80;;;3.47;;
22851;SDS011;11592;45.460;9.240;2024-02-28T13:03:21;9.40;;;4.65;;
22851;SDS011;11592;45.460;9.240;2024-02-28T13:05:48;7.80;;;3.38;;
22851;SDS011;11592;45.460;9.240;2024-02-28T13:08:16;7.95;;;3.80;;
22851;SDS011;11592;45.460;9.240;2024-02-28T13:10:43;6.50;;;3.95;;
22851;SDS011;11592;45.460;9.240;2024-02-28T13:13:10;9.20;;;5.00;;
22851;SDS011;11592;45.460;9.240;2024-02-28T13:15:40;9.68;;;5.50;;
22851;SDS011;11592;45.460;9.240;2024-02-28T13:18:07;12.35;;;7.15;;
22851;SDS011;11592;45.460;9.240;2024-02-28T13:20:37;16.77;;;8.70;;
22851;SDS011;11592;45.460;9.240;2024-02-28T13:23:06;9.10;;;6.38;;
22851;SDS011;11592;45.460;9.240;2024-02-28T13:25:33;12.68;;;7.75;;
22851;SDS011;11592;45.460;9.240;2024-02-28T13:28:00;9.98;;;7.32;;
22851;SDS011;11592;45.460;9.240;2024-02-28T13:30:28;9.73;;;6.85;;
22851;SDS011;11592;45.460;9.240;2024-02-28T13:32:55;13.10;;;7.18;;
22851;SDS011;11592;45.460;9.240;2024-02-28T13:35:23;12.02;;;6.78;;
22851;SDS011;11592;45.460;9.240;2024-02-28T13:37:50;11.15;;;6.32;;
22851;SDS011;11592;45.460;9.240;2024-02-28T13:40:19;10.07;;;6.82;;
22851;SDS011;11592;45.460;9.240;2024-02-28T13:42:46;10.25;;;6.30;;
22851;SDS011;11592;45.460;9.240;2024-02-28T13:45:13;10.77;;;6.45;;
22851;SDS011;11592;45.460;9.240;2024-02-28T13:47:41;8.98;;;6.03;;
22851;SDS011;11592;45.460;9.240;2024-02-28T13:50:08;12.15;;;7.50;;
22851;SDS011;11592;45.460;9.240;2024-02-28T13:52:36;14.65;;;7.18;;
22851;SDS011;11592;45.460;9.240;2024-02-28T13:55:03;11.65;;;7.70;;
22851;SDS011;11592;45.460;9.240;2024-02-28T13:57:30;11.55;;;7.75;;
22851;SDS011;11592;45.460;9.240;2024-02-28T13:59:58;12.63;;;7.43;;
22851;SDS011;11592;45.460;9.240;2024-02-28T14:02:25;11.75;;;8.18;;
22851;SDS011;11592;45.460;9.240;2024-02-28T14:04:54;13.23;;;9.48;;
22851;SDS011;11592;45.460;9.240;2024-02-28T14:07:21;15.50;;;9.50;;
22851;SDS011;11592;45.460;9.240;2024-02-28T14:09:48;14.98;;;8.95;;
22851;SDS011;11592;45.460;9.240;2024-02-28T14:12:15;14.38;;;8.68;;
22851;SDS011;11592;45.460;9.240;2024-02-28T14:14:43;13.68;;;7.43;;
22851;SDS011;11592;45.460;9.240;2024-02-28T14:17:10;11.60;;;8.70;;
22851;SDS011;11592;45.460;9.240;2024-02-28T14:19:37;18.10;;;8.57;;
22851;SDS011;11592;45.460;9.240;2024-02-28T14:22:04;13.13;;;8.07;;
22851;SDS011;11592;45.460;9.240;2024-02-28T14:24:32;13.82;;;8.23;;
22851;SDS011;11592;45.460;9.240;2024-02-28T14:26:59;12.73;;;8.77;;
22851;SDS011;11592;45.460;9.240;2024-02-28T14:29:26;12.90;;;8.07;;
22851;SDS011;11592;45.460;9.240;2024-02-28T14:31:55;12.68;;;8.38;;
22851;SDS011;11592;45.460;9.240;2024-02-28T14:34:22;11.90;;;8.40;;
22851;SDS011;11592;45.460;9.240;2024-02-28T14:36:50;13.32;;;8.40;;
22851;SDS011;11592;45.460;9.240;2024-02-28T14:39:17;13.82;;;8.65;;
22851;SDS011;11592;45.460;9.240;2024-02-28T14:41:45;15.95;;;9.18;;